sensor_id;sensor_type;location;lat;lon;timestamp;temperature;humidity
4699;DHT22;33708;49.466;11.176;2022-08-04T00:00:45;19.80;1.00
4699;DHT22;33708;49.466;11.176;2022-08-04T00:03:23;19.90;1.00
4699;DHT22;33708;49.466;11.176;2022-08-04T00:05:59;19.80;1.00
4699;DHT22;33708;49.466;11.176;2022-08-04T00:08:43;19.80;1.00
4699;DHT22;33708;49.466;11.176;2022-08-04T00:11:12;19.70;1.00
4699;DHT22;33708;49.466;11.176;2022-08-04T00:13:42;19.70;1.00
4699;DHT22;33708;49.466;11.176;2022-08-04T00:16:09;19.70;1.00
4699;DHT22;33708;49.466;11.176;2022-08-04T00:18:41;19.70;1.00
4699;DHT22;33708;49.466;11.176;2022-08-04T00:21:11;19.60;1.00
4699;DHT22;33708;49.466;11.176;2022-08-04T00:23:38;19.60;1.00
4699;DHT22;33708;49.466;11.176;2022-08-04T00:26:06;19.60;1.00
4699;DHT22;33708;49.466;11.176;2022-08-04T00:28:35;19.50;1.00
4699;DHT22;33708;49.466;11.176;2022-08-04T00:31:01;19.50;1.00
4699;DHT22;33708;49.466;11.176;2022-08-04T00:33:27;19.40;1.00
4699;DHT22;33708;49.466;11.176;2022-08-04T00:35:54;19.40;1.00
4699;DHT22;33708;49.466;11.176;2022-08-04T00:38:20;19.20;1.00
4699;DHT22;33708;49.466;11.176;2022-08-04T00:43:29;19.20;1.00
4699;DHT22;33708;49.466;11.176;2022-08-04T00:46:23;19.30;1.00
4699;DHT22;33708;49.466;11.176;2022-08-04T00:56:56;19.10;1.00
4699;DHT22;33708;49.466;11.176;2022-08-04T01:02:00;19.20;1.00
4699;DHT22;33708;49.466;11.176;2022-08-04T01:04:56;19.10;1.00
4699;DHT22;33708;49.466;11.176;2022-08-04T01:07:30;19.00;1.00
4699;DHT22;33708;49.466;11.176;2022-08-04T01:10:09;18.90;1.00
4699;DHT22;33708;49.466;11.176;2022-08-04T01:12:53;18.80;1.00
4699;DHT22;33708;49.466;11.176;2022-08-04T01:15:39;18.80;1.00
4699;DHT22;33708;49.466;11.176;2022-08-04T01:18:07;18.70;1.00
4699;DHT22;33708;49.466;11.176;2022-08-04T01:20:40;18.70;1.00
4699;DHT22;33708;49.466;11.176;2022-08-04T01:29:03;18.70;1.00
4699;DHT22;33708;49.466;11.176;2022-08-04T01:34:28;18.50;1.00
4699;DHT22;33708;49.466;11.176;2022-08-04T01:39:56;18.50;1.00
4699;DHT22;33708;49.466;11.176;2022-08-04T01:42:25;18.50;1.00
4699;DHT22;33708;49.466;11.176;2022-08-04T01:44:54;18.50;1.00
4699;DHT22;33708;49.466;11.176;2022-08-04T01:47:23;18.50;1.00
4699;DHT22;33708;49.466;11.176;2022-08-04T01:49:51;18.50;1.00
4699;DHT22;33708;49.466;11.176;2022-08-04T01:52:20;18.40;1.00
4699;DHT22;33708;49.466;11.176;2022-08-04T01:54:47;18.20;1.00
4699;DHT22;33708;49.466;11.176;2022-08-04T01:57:16;18.20;1.00
4699;DHT22;33708;49.466;11.176;2022-08-04T01:59:44;18.00;1.00
4699;DHT22;33708;49.466;11.176;2022-08-04T02:02:11;18.00;1.00
4699;DHT22;33708;49.466;11.176;2022-08-04T02:04:37;18.00;1.00
4699;DHT22;33708;49.466;11.176;2022-08-04T02:09:38;18.20;1.00
4699;DHT22;33708;49.466;11.176;2022-08-04T02:12:12;18.20;1.00
4699;DHT22;33708;49.466;11.176;2022-08-04T02:14:55;18.10;1.00
4699;DHT22;33708;49.466;11.176;2022-08-04T02:17:28;18.00;1.00
4699;DHT22;33708;49.466;11.176;2022-08-04T02:20:11;17.90;1.00
4699;DHT22;33708;49.466;11.176;2022-08-04T02:22:50;17.80;1.00
4699;DHT22;33708;49.466;11.176;2022-08-04T02:25:23;17.80;1.00
4699;DHT22;33708;49.466;11.176;2022-08-04T02:27:58;17.70;1.00
4699;DHT22;33708;49.466;11.176;2022-08-04T02:30:30;17.70;1.00
4699;DHT22;33708;49.466;11.176;2022-08-04T02:33:01;17.70;1.00
4699;DHT22;33708;49.466;11.176;2022-08-04T02:35:27;17.90;1.00
4699;DHT22;33708;49.466;11.176;2022-08-04T02:38:15;17.80;1.00
4699;DHT22;33708;49.466;11.176;2022-08-04T02:40:43;17.70;1.00
4699;DHT22;33708;49.466;11.176;2022-08-04T02:43:10;17.70;1.00
4699;DHT22;33708;49.466;11.176;2022-08-04T02:45:41;17.70;1.00
4699;DHT22;33708;49.466;11.176;2022-08-04T02:48:09;17.60;1.00
4699;DHT22;33708;49.466;11.176;2022-08-04T02:50:36;17.60;1.00
4699;DHT22;33708;49.466;11.176;2022-08-04T02:53:03;17.60;1.00
4699;DHT22;33708;49.466;11.176;2022-08-04T02:55:31;17.60;1.00
4699;DHT22;33708;49.466;11.176;2022-08-04T02:57:57;17.80;1.00
4699;DHT22;33708;49.466;11.176;2022-08-04T03:00:27;17.70;1.00
4699;DHT22;33708;49.466;11.176;2022-08-04T03:11:46;17.40;1.00
4699;DHT22;33708;49.466;11.176;2022-08-04T03:30:40;17.30;1.00
4699;DHT22;33708;49.466;11.176;2022-08-04T03:33:36;17.30;1.00
4699;DHT22;33708;49.466;11.176;2022-08-04T03:39:35;17.30;1.00
4699;DHT22;33708;49.466;11.176;2022-08-04T03:56:41;17.40;1.00
4699;DHT22;33708;49.466;11.176;2022-08-04T04:04:54;17.50;1.00
4699;DHT22;33708;49.466;11.176;2022-08-04T04:15:50;19.00;1.00
4699;DHT22;33708;49.466;11.176;2022-08-04T04:21:35;21.00;1.00
4699;DHT22;33708;49.466;11.176;2022-08-04T04:24:29;21.60;1.00
4699;DHT22;33708;49.466;11.176;2022-08-04T04:27:05;22.80;1.00
4699;DHT22;33708;49.466;11.176;2022-08-04T04:29:59;24.00;1.00
4699;DHT22;33708;49.466;11.176;2022-08-04T04:57:38;30.90;1.00
4699;DHT22;33708;49.466;11.176;2022-08-04T05:00:08;30.80;1.00
4699;DHT22;33708;49.466;11.176;2022-08-04T05:13:37;32.60;1.00
4699;DHT22;33708;49.466;11.176;2022-08-04T05:21:50;35.50;1.00
4699;DHT22;33708;49.466;11.176;2022-08-04T05:24:18;36.80;1.00
4699;DHT22;33708;49.466;11.176;2022-08-04T05:26:50;36.80;1.00
4699;DHT22;33708;49.466;11.176;2022-08-04T05:29:27;37.30;1.00
4699;DHT22;33708;49.466;11.176;2022-08-04T05:31:54;38.00;1.00
4699;DHT22;33708;49.466;11.176;2022-08-04T05:34:26;37.70;1.00
4699;DHT22;33708;49.466;11.176;2022-08-04T05:37:04;37.70;1.00
4699;DHT22;33708;49.466;11.176;2022-08-04T05:39:36;37.00;1.00
4699;DHT22;33708;49.466;11.176;2022-08-04T05:42:03;36.50;1.00
4699;DHT22;33708;49.466;11.176;2022-08-04T05:44:31;38.00;1.00
4699;DHT22;33708;49.466;11.176;2022-08-04T05:46:58;38.40;1.00
4699;DHT22;33708;49.466;11.176;2022-08-04T05:49:26;39.20;1.00
4699;DHT22;33708;49.466;11.176;2022-08-04T05:51:55;39.20;1.00
4699;DHT22;33708;49.466;11.176;2022-08-04T05:54:21;39.60;1.00
4699;DHT22;33708;49.466;11.176;2022-08-04T05:56:47;39.80;1.00
4699;DHT22;33708;49.466;11.176;2022-08-04T05:59:14;40.20;1.00
4699;DHT22;33708;49.466;11.176;2022-08-04T06:01:42;39.00;1.00
4699;DHT22;33708;49.466;11.176;2022-08-04T06:04:10;39.00;1.00
4699;DHT22;33708;49.466;11.176;2022-08-04T06:06:38;38.00;1.00
4699;DHT22;33708;49.466;11.176;2022-08-04T06:09:04;39.00;1.00
4699;DHT22;33708;49.466;11.176;2022-08-04T06:11:30;39.80;1.00
4699;DHT22;33708;49.466;11.176;2022-08-04T06:14:00;40.10;1.00
4699;DHT22;33708;49.466;11.176;2022-08-04T06:16:37;42.50;1.00
4699;DHT22;33708;49.466;11.176;2022-08-04T06:19:06;43.20;1.00
4699;DHT22;33708;49.466;11.176;2022-08-04T06:21:32;44.50;1.00
4699;DHT22;33708;49.466;11.176;2022-08-04T06:23:59;45.10;1.00
4699;DHT22;33708;49.466;11.176;2022-08-04T06:26:27;46.70;1.00
4699;DHT22;33708;49.466;11.176;2022-08-04T06:28:55;46.00;1.00
4699;DHT22;33708;49.466;11.176;2022-08-04T06:31:22;46.70;1.00
4699;DHT22;33708;49.466;11.176;2022-08-04T06:34:08;47.40;1.00
4699;DHT22;33708;49.466;11.176;2022-08-04T06:36:34;47.80;1.00
4699;DHT22;33708;49.466;11.176;2022-08-04T06:39:04;47.00;1.00
4699;DHT22;33708;49.466;11.176;2022-08-04T06:41:30;46.80;1.00
4699;DHT22;33708;49.466;11.176;2022-08-04T06:44:02;47.40;1.00
4699;DHT22;33708;49.466;11.176;2022-08-04T06:46:30;46.90;1.00
4699;DHT22;33708;49.466;11.176;2022-08-04T06:48:57;48.60;1.00
4699;DHT22;33708;49.466;11.176;2022-08-04T06:51:24;48.80;1.00
4699;DHT22;33708;49.466;11.176;2022-08-04T06:53:50;49.60;1.00
4699;DHT22;33708;49.466;11.176;2022-08-04T06:56:18;47.70;1.00
4699;DHT22;33708;49.466;11.176;2022-08-04T06:58:48;47.20;1.00
4699;DHT22;33708;49.466;11.176;2022-08-04T07:01:16;45.40;1.00
4699;DHT22;33708;49.466;11.176;2022-08-04T07:03:44;45.80;1.00
4699;DHT22;33708;49.466;11.176;2022-08-04T07:06:10;46.30;1.00
4699;DHT22;33708;49.466;11.176;2022-08-04T07:08:36;47.30;1.00
4699;DHT22;33708;49.466;11.176;2022-08-04T07:11:02;47.30;1.00
4699;DHT22;33708;49.466;11.176;2022-08-04T07:13:30;47.50;1.00
4699;DHT22;33708;49.466;11.176;2022-08-04T07:15:57;48.50;1.00
4699;DHT22;33708;49.466;11.176;2022-08-04T07:18:24;46.50;1.00
4699;DHT22;33708;49.466;11.176;2022-08-04T07:20:50;46.10;1.00
4699;DHT22;33708;49.466;11.176;2022-08-04T07:23:16;46.20;1.00
4699;DHT22;33708;49.466;11.176;2022-08-04T07:25:55;47.30;1.00
4699;DHT22;33708;49.466;11.176;2022-08-04T07:28:24;49.10;1.00
4699;DHT22;33708;49.466;11.176;2022-08-04T07:30:51;49.20;1.00
4699;DHT22;33708;49.466;11.176;2022-08-04T07:33:18;48.20;1.00
4699;DHT22;33708;49.466;11.176;2022-08-04T07:35:46;48.90;1.00
4699;DHT22;33708;49.466;11.176;2022-08-04T07:38:12;48.90;1.00
4699;DHT22;33708;49.466;11.176;2022-08-04T07:40:39;49.10;1.00
4699;DHT22;33708;49.466;11.176;2022-08-04T07:43:05;47.20;1.00
4699;DHT22;33708;49.466;11.176;2022-08-04T07:45:31;45.60;1.00
4699;DHT22;33708;49.466;11.176;2022-08-04T07:47:57;45.90;1.00
4699;DHT22;33708;49.466;11.176;2022-08-04T07:50:24;46.20;1.00
4699;DHT22;33708;49.466;11.176;2022-08-04T07:52:50;46.80;1.00
4699;DHT22;33708;49.466;11.176;2022-08-04T07:55:17;45.40;1.00
4699;DHT22;33708;49.466;11.176;2022-08-04T07:57:43;44.60;1.00
4699;DHT22;33708;49.466;11.176;2022-08-04T08:00:10;45.90;1.00
4699;DHT22;33708;49.466;11.176;2022-08-04T08:02:39;46.80;1.00
4699;DHT22;33708;49.466;11.176;2022-08-04T08:05:08;45.30;1.00
4699;DHT22;33708;49.466;11.176;2022-08-04T08:07:34;46.80;1.00
4699;DHT22;33708;49.466;11.176;2022-08-04T08:10:00;47.00;1.00
4699;DHT22;33708;49.466;11.176;2022-08-04T08:12:26;47.30;1.00
4699;DHT22;33708;49.466;11.176;2022-08-04T08:14:53;46.30;1.00
4699;DHT22;33708;49.466;11.176;2022-08-04T08:17:19;45.40;1.00
4699;DHT22;33708;49.466;11.176;2022-08-04T08:19:45;43.00;1.00
4699;DHT22;33708;49.466;11.176;2022-08-04T08:22:11;43.70;1.00
4699;DHT22;33708;49.466;11.176;2022-08-04T08:24:37;41.70;1.00
4699;DHT22;33708;49.466;11.176;2022-08-04T08:27:03;42.70;1.00
4699;DHT22;33708;49.466;11.176;2022-08-04T08:29:29;43.50;1.00
4699;DHT22;33708;49.466;11.176;2022-08-04T08:31:57;45.20;1.00
4699;DHT22;33708;49.466;11.176;2022-08-04T08:34:26;43.90;1.00
4699;DHT22;33708;49.466;11.176;2022-08-04T08:40:01;43.70;1.00
4699;DHT22;33708;49.466;11.176;2022-08-04T08:42:53;44.50;1.00
4699;DHT22;33708;49.466;11.176;2022-08-04T08:54:16;44.00;1.00
4699;DHT22;33708;49.466;11.176;2022-08-04T08:56:57;44.50;1.00
4699;DHT22;33708;49.466;11.176;2022-08-04T09:08:18;45.30;1.00
4699;DHT22;33708;49.466;11.176;2022-08-04T09:10:52;45.20;1.00
4699;DHT22;33708;49.466;11.176;2022-08-04T09:13:26;43.10;1.00
4699;DHT22;33708;49.466;11.176;2022-08-04T09:18:41;42.50;1.00
4699;DHT22;33708;49.466;11.176;2022-08-04T09:21:21;41.60;1.00
4699;DHT22;33708;49.466;11.176;2022-08-04T09:24:15;41.40;1.00
4699;DHT22;33708;49.466;11.176;2022-08-04T09:26:47;40.60;1.00
4699;DHT22;33708;49.466;11.176;2022-08-04T09:29:35;40.80;1.00
4699;DHT22;33708;49.466;11.176;2022-08-04T09:32:15;40.90;1.00
4699;DHT22;33708;49.466;11.176;2022-08-04T09:37:47;41.00;1.00
4699;DHT22;33708;49.466;11.176;2022-08-04T09:49:01;41.10;1.00
4699;DHT22;33708;49.466;11.176;2022-08-04T09:51:41;41.00;1.00
4699;DHT22;33708;49.466;11.176;2022-08-04T09:54:46;40.40;1.00
4699;DHT22;33708;49.466;11.176;2022-08-04T10:02:21;36.50;1.00
4699;DHT22;33708;49.466;11.176;2022-08-04T10:04:49;36.40;1.00
4699;DHT22;33708;49.466;11.176;2022-08-04T10:07:40;36.70;1.00
4699;DHT22;33708;49.466;11.176;2022-08-04T10:15:35;34.40;1.00
4699;DHT22;33708;49.466;11.176;2022-08-04T10:18:25;34.70;1.00
4699;DHT22;33708;49.466;11.176;2022-08-04T10:21:03;34.60;1.00
4699;DHT22;33708;49.466;11.176;2022-08-04T10:26:04;34.60;1.00
4699;DHT22;33708;49.466;11.176;2022-08-04T10:28:37;34.40;1.00
4699;DHT22;33708;49.466;11.176;2022-08-04T10:31:08;34.40;1.00
4699;DHT22;33708;49.466;11.176;2022-08-04T10:33:49;34.40;1.00
4699;DHT22;33708;49.466;11.176;2022-08-04T10:36:19;34.40;1.00
4699;DHT22;33708;49.466;11.176;2022-08-04T10:39:09;34.20;1.00
4699;DHT22;33708;49.466;11.176;2022-08-04T10:44:51;34.30;1.00
4699;DHT22;33708;49.466;11.176;2022-08-04T10:47:19;34.10;1.00
4699;DHT22;33708;49.466;11.176;2022-08-04T10:49:53;34.40;1.00
4699;DHT22;33708;49.466;11.176;2022-08-04T10:52:52;34.60;1.00
4699;DHT22;33708;49.466;11.176;2022-08-04T10:55:27;34.50;1.00
4699;DHT22;33708;49.466;11.176;2022-08-04T10:58:05;34.00;1.00
4699;DHT22;33708;49.466;11.176;2022-08-04T11:00:35;34.30;1.00
4699;DHT22;33708;49.466;11.176;2022-08-04T11:05:54;34.30;1.00
4699;DHT22;33708;49.466;11.176;2022-08-04T11:08:36;34.00;1.00
4699;DHT22;33708;49.466;11.176;2022-08-04T11:14:08;34.20;1.00
4699;DHT22;33708;49.466;11.176;2022-08-04T11:21:41;35.10;1.00
4699;DHT22;33708;49.466;11.176;2022-08-04T11:24:21;35.20;1.00
4699;DHT22;33708;49.466;11.176;2022-08-04T11:30:25;35.10;1.00
4699;DHT22;33708;49.466;11.176;2022-08-04T11:35:01;35.10;1.00
4699;DHT22;33708;49.466;11.176;2022-08-04T11:37:48;35.20;1.00
4699;DHT22;33708;49.466;11.176;2022-08-04T11:40:28;35.00;1.00
4699;DHT22;33708;49.466;11.176;2022-08-04T11:43:00;35.50;1.00
4699;DHT22;33708;49.466;11.176;2022-08-04T11:45:35;35.50;1.00
4699;DHT22;33708;49.466;11.176;2022-08-04T11:48:15;35.70;1.00
4699;DHT22;33708;49.466;11.176;2022-08-04T11:50:48;35.90;1.00
4699;DHT22;33708;49.466;11.176;2022-08-04T11:53:18;35.70;1.00
4699;DHT22;33708;49.466;11.176;2022-08-04T11:55:49;35.70;1.00
4699;DHT22;33708;49.466;11.176;2022-08-04T11:58:18;35.70;1.00
4699;DHT22;33708;49.466;11.176;2022-08-04T12:11:39;35.80;1.00
4699;DHT22;33708;49.466;11.176;2022-08-04T12:14:32;36.00;1.00
4699;DHT22;33708;49.466;11.176;2022-08-04T12:17:04;36.40;1.00
4699;DHT22;33708;49.466;11.176;2022-08-04T12:19:38;36.30;1.00
4699;DHT22;33708;49.466;11.176;2022-08-04T12:22:10;36.40;1.00
4699;DHT22;33708;49.466;11.176;2022-08-04T12:24:45;36.60;1.00
4699;DHT22;33708;49.466;11.176;2022-08-04T12:27:30;36.90;1.00
4699;DHT22;33708;49.466;11.176;2022-08-04T12:29:58;36.70;1.00
4699;DHT22;33708;49.466;11.176;2022-08-04T12:32:35;36.80;1.00
4699;DHT22;33708;49.466;11.176;2022-08-04T12:35:18;36.90;1.00
4699;DHT22;33708;49.466;11.176;2022-08-04T12:37:54;36.90;1.00
4699;DHT22;33708;49.466;11.176;2022-08-04T12:40:26;36.90;1.00
4699;DHT22;33708;49.466;11.176;2022-08-04T12:45:50;36.90;1.00
4699;DHT22;33708;49.466;11.176;2022-08-04T12:48:18;37.00;1.00
4699;DHT22;33708;49.466;11.176;2022-08-04T12:50:49;37.30;1.00
4699;DHT22;33708;49.466;11.176;2022-08-04T12:53:17;37.00;1.00
4699;DHT22;33708;49.466;11.176;2022-08-04T12:55:46;37.00;1.00
4699;DHT22;33708;49.466;11.176;2022-08-04T12:58:19;37.10;1.00
4699;DHT22;33708;49.466;11.176;2022-08-04T13:00:53;37.10;1.00
4699;DHT22;33708;49.466;11.176;2022-08-04T13:03:21;37.30;1.00
4699;DHT22;33708;49.466;11.176;2022-08-04T13:05:52;37.60;1.00
4699;DHT22;33708;49.466;11.176;2022-08-04T13:08:20;37.20;1.00
4699;DHT22;33708;49.466;11.176;2022-08-04T13:10:52;37.50;1.00
4699;DHT22;33708;49.466;11.176;2022-08-04T13:13:24;37.80;1.00
4699;DHT22;33708;49.466;11.176;2022-08-04T13:18:22;37.90;1.00
4699;DHT22;33708;49.466;11.176;2022-08-04T13:20:47;37.90;1.00
4699;DHT22;33708;49.466;11.176;2022-08-04T13:23:15;37.90;1.00
4699;DHT22;33708;49.466;11.176;2022-08-04T13:25:43;37.90;1.00
4699;DHT22;33708;49.466;11.176;2022-08-04T13:28:37;37.90;1.00
4699;DHT22;33708;49.466;11.176;2022-08-04T13:31:06;38.10;1.00
4699;DHT22;33708;49.466;11.176;2022-08-04T13:33:41;38.00;1.00
4699;DHT22;33708;49.466;11.176;2022-08-04T13:36:09;37.90;1.00
4699;DHT22;33708;49.466;11.176;2022-08-04T13:38:44;37.50;1.00
4699;DHT22;33708;49.466;11.176;2022-08-04T13:41:11;37.90;1.00
4699;DHT22;33708;49.466;11.176;2022-08-04T13:43:46;38.20;1.00
4699;DHT22;33708;49.466;11.176;2022-08-04T13:46:16;37.80;1.00
4699;DHT22;33708;49.466;11.176;2022-08-04T13:48:43;38.10;1.00
4699;DHT22;33708;49.466;11.176;2022-08-04T13:51:10;38.10;1.00
4699;DHT22;33708;49.466;11.176;2022-08-04T13:53:38;38.20;1.00
4699;DHT22;33708;49.466;11.176;2022-08-04T13:56:08;37.90;1.00
4699;DHT22;33708;49.466;11.176;2022-08-04T13:58:40;38.10;1.00
4699;DHT22;33708;49.466;11.176;2022-08-04T14:01:17;38.10;1.00
4699;DHT22;33708;49.466;11.176;2022-08-04T14:09:11;38.30;1.00
4699;DHT22;33708;49.466;11.176;2022-08-04T14:11:43;38.40;1.00
4699;DHT22;33708;49.466;11.176;2022-08-04T14:14:43;38.10;1.00
4699;DHT22;33708;49.466;11.176;2022-08-04T14:17:11;38.10;1.00
4699;DHT22;33708;49.466;11.176;2022-08-04T14:19:50;38.00;1.00
4699;DHT22;33708;49.466;11.176;2022-08-04T14:27:27;38.20;1.00
4699;DHT22;33708;49.466;11.176;2022-08-04T14:29:53;38.00;1.00
4699;DHT22;33708;49.466;11.176;2022-08-04T14:32:19;37.80;1.00
4699;DHT22;33708;49.466;11.176;2022-08-04T14:34:45;37.90;1.00
4699;DHT22;33708;49.466;11.176;2022-08-04T14:37:13;37.80;1.00
4699;DHT22;33708;49.466;11.176;2022-08-04T14:42:07;37.70;1.00
4699;DHT22;33708;49.466;11.176;2022-08-04T14:44:54;38.00;1.00
4699;DHT22;33708;49.466;11.176;2022-08-04T14:47:44;37.90;1.00
4699;DHT22;33708;49.466;11.176;2022-08-04T14:50:11;37.70;1.00
4699;DHT22;33708;49.466;11.176;2022-08-04T14:52:38;38.00;1.00
4699;DHT22;33708;49.466;11.176;2022-08-04T14:55:20;38.00;1.00
4699;DHT22;33708;49.466;11.176;2022-08-04T14:57:48;38.00;1.00
4699;DHT22;33708;49.466;11.176;2022-08-04T15:00:31;37.80;1.00
4699;DHT22;33708;49.466;11.176;2022-08-04T15:03:05;37.80;1.00
4699;DHT22;33708;49.466;11.176;2022-08-04T15:05:34;37.60;1.00
4699;DHT22;33708;49.466;11.176;2022-08-04T15:08:00;37.40;1.00
4699;DHT22;33708;49.466;11.176;2022-08-04T15:10:27;37.00;1.00
4699;DHT22;33708;49.466;11.176;2022-08-04T15:12:53;37.10;1.00
4699;DHT22;33708;49.466;11.176;2022-08-04T15:15:19;37.40;1.00
4699;DHT22;33708;49.466;11.176;2022-08-04T15:17:45;37.10;1.00
4699;DHT22;33708;49.466;11.176;2022-08-04T15:20:12;37.30;1.00
4699;DHT22;33708;49.466;11.176;2022-08-04T15:22:38;37.40;1.00
4699;DHT22;33708;49.466;11.176;2022-08-04T15:25:04;37.20;1.00
4699;DHT22;33708;49.466;11.176;2022-08-04T15:27:33;36.90;1.00
4699;DHT22;33708;49.466;11.176;2022-08-04T15:30:06;36.90;1.00
4699;DHT22;33708;49.466;11.176;2022-08-04T15:32:34;36.80;1.00
4699;DHT22;33708;49.466;11.176;2022-08-04T15:35:07;36.80;1.00
4699;DHT22;33708;49.466;11.176;2022-08-04T15:49:23;36.60;1.00
4699;DHT22;33708;49.466;11.176;2022-08-04T15:52:13;36.50;1.00
4699;DHT22;33708;49.466;11.176;2022-08-04T15:54:42;36.30;1.00
4699;DHT22;33708;49.466;11.176;2022-08-04T15:57:09;36.30;1.00
4699;DHT22;33708;49.466;11.176;2022-08-04T16:08:00;35.90;1.00
4699;DHT22;33708;49.466;11.176;2022-08-04T16:15:55;35.60;1.00
4699;DHT22;33708;49.466;11.176;2022-08-04T16:20:58;35.50;1.00
4699;DHT22;33708;49.466;11.176;2022-08-04T16:23:45;35.50;1.00
4699;DHT22;33708;49.466;11.176;2022-08-04T16:29:24;35.40;1.00
4699;DHT22;33708;49.466;11.176;2022-08-04T16:34:36;35.20;1.00
4699;DHT22;33708;49.466;11.176;2022-08-04T16:37:06;35.10;1.00
4699;DHT22;33708;49.466;11.176;2022-08-04T16:39:32;35.10;1.00
4699;DHT22;33708;49.466;11.176;2022-08-04T16:41:58;35.00;1.00
4699;DHT22;33708;49.466;11.176;2022-08-04T16:44:29;35.00;1.00
4699;DHT22;33708;49.466;11.176;2022-08-04T16:46:56;35.00;1.00
4699;DHT22;33708;49.466;11.176;2022-08-04T16:49:23;34.90;1.00
4699;DHT22;33708;49.466;11.176;2022-08-04T16:51:50;34.80;1.00
4699;DHT22;33708;49.466;11.176;2022-08-04T16:54:16;34.80;1.00
4699;DHT22;33708;49.466;11.176;2022-08-04T16:56:42;34.80;1.00
4699;DHT22;33708;49.466;11.176;2022-08-04T16:59:10;34.70;1.00
4699;DHT22;33708;49.466;11.176;2022-08-04T17:01:57;34.60;1.00
4699;DHT22;33708;49.466;11.176;2022-08-04T17:04:32;34.60;1.00
4699;DHT22;33708;49.466;11.176;2022-08-04T17:07:03;34.40;1.00
4699;DHT22;33708;49.466;11.176;2022-08-04T17:09:29;34.40;1.00
4699;DHT22;33708;49.466;11.176;2022-08-04T17:11:56;34.30;1.00
4699;DHT22;33708;49.466;11.176;2022-08-04T17:14:23;34.30;1.00
4699;DHT22;33708;49.466;11.176;2022-08-04T17:16:50;34.30;1.00
4699;DHT22;33708;49.466;11.176;2022-08-04T17:19:16;34.20;1.00
4699;DHT22;33708;49.466;11.176;2022-08-04T17:21:42;34.20;1.00
4699;DHT22;33708;49.466;11.176;2022-08-04T17:24:08;34.10;1.00
4699;DHT22;33708;49.466;11.176;2022-08-04T17:26:36;34.00;1.00
4699;DHT22;33708;49.466;11.176;2022-08-04T17:29:02;33.90;1.00
4699;DHT22;33708;49.466;11.176;2022-08-04T17:31:30;33.90;1.00
4699;DHT22;33708;49.466;11.176;2022-08-04T17:33:58;33.80;1.00
4699;DHT22;33708;49.466;11.176;2022-08-04T17:36:28;33.70;1.00
4699;DHT22;33708;49.466;11.176;2022-08-04T17:39:00;33.70;1.00
4699;DHT22;33708;49.466;11.176;2022-08-04T17:41:28;33.70;1.00
4699;DHT22;33708;49.466;11.176;2022-08-04T17:43:59;33.70;1.00
4699;DHT22;33708;49.466;11.176;2022-08-04T17:46:36;33.60;1.00
4699;DHT22;33708;49.466;11.176;2022-08-04T17:51:42;33.50;1.00
4699;DHT22;33708;49.466;11.176;2022-08-04T17:54:09;33.40;1.00
4699;DHT22;33708;49.466;11.176;2022-08-04T17:56:39;33.30;1.00
4699;DHT22;33708;49.466;11.176;2022-08-04T18:01:51;33.20;1.00
4699;DHT22;33708;49.466;11.176;2022-08-04T18:07:14;33.00;1.00
4699;DHT22;33708;49.466;11.176;2022-08-04T18:12:35;32.80;1.00
4699;DHT22;33708;49.466;11.176;2022-08-04T18:15:21;32.70;1.00
4699;DHT22;33708;49.466;11.176;2022-08-04T18:17:47;32.60;1.00
4699;DHT22;33708;49.466;11.176;2022-08-04T18:20:18;32.50;1.00
4699;DHT22;33708;49.466;11.176;2022-08-04T18:22:45;32.30;1.00
4699;DHT22;33708;49.466;11.176;2022-08-04T18:25:13;32.30;1.00
4699;DHT22;33708;49.466;11.176;2022-08-04T18:27:53;32.10;1.00
4699;DHT22;33708;49.466;11.176;2022-08-04T18:30:23;31.90;1.00
4699;DHT22;33708;49.466;11.176;2022-08-04T18:32:50;31.80;1.00
4699;DHT22;33708;49.466;11.176;2022-08-04T18:35:17;31.60;1.00
4699;DHT22;33708;49.466;11.176;2022-08-04T18:37:42;31.50;1.00
4699;DHT22;33708;49.466;11.176;2022-08-04T18:40:09;31.20;1.00
4699;DHT22;33708;49.466;11.176;2022-08-04T18:42:37;31.00;1.00
4699;DHT22;33708;49.466;11.176;2022-08-04T18:45:04;30.70;1.00
4699;DHT22;33708;49.466;11.176;2022-08-04T18:47:30;30.50;1.00
4699;DHT22;33708;49.466;11.176;2022-08-04T18:49:56;30.20;1.00
4699;DHT22;33708;49.466;11.176;2022-08-04T18:52:23;30.10;1.00
4699;DHT22;33708;49.466;11.176;2022-08-04T18:54:49;29.90;1.00
4699;DHT22;33708;49.466;11.176;2022-08-04T18:57:23;29.80;1.00
4699;DHT22;33708;49.466;11.176;2022-08-04T18:59:49;29.50;1.00
4699;DHT22;33708;49.466;11.176;2022-08-04T19:02:15;29.30;1.00
4699;DHT22;33708;49.466;11.176;2022-08-04T19:04:41;29.10;1.00
4699;DHT22;33708;49.466;11.176;2022-08-04T19:07:08;28.90;1.00
4699;DHT22;33708;49.466;11.176;2022-08-04T19:09:38;28.70;1.00
4699;DHT22;33708;49.466;11.176;2022-08-04T19:12:04;28.60;1.00
4699;DHT22;33708;49.466;11.176;2022-08-04T19:14:32;28.40;1.00
4699;DHT22;33708;49.466;11.176;2022-08-04T19:16:58;28.40;1.00
4699;DHT22;33708;49.466;11.176;2022-08-04T19:19:24;28.30;1.00
4699;DHT22;33708;49.466;11.176;2022-08-04T19:21:49;28.20;1.00
4699;DHT22;33708;49.466;11.176;2022-08-04T19:24:16;28.10;1.00
4699;DHT22;33708;49.466;11.176;2022-08-04T19:26:41;27.90;1.00
4699;DHT22;33708;49.466;11.176;2022-08-04T19:29:07;27.80;1.00
4699;DHT22;33708;49.466;11.176;2022-08-04T19:31:33;27.80;1.00
4699;DHT22;33708;49.466;11.176;2022-08-04T19:33:59;27.70;1.00
4699;DHT22;33708;49.466;11.176;2022-08-04T19:36:26;27.70;1.00
4699;DHT22;33708;49.466;11.176;2022-08-04T19:38:52;27.60;1.00
4699;DHT22;33708;49.466;11.176;2022-08-04T19:41:19;27.60;1.00
4699;DHT22;33708;49.466;11.176;2022-08-04T19:43:44;27.50;1.00
4699;DHT22;33708;49.466;11.176;2022-08-04T19:46:12;27.50;1.00
4699;DHT22;33708;49.466;11.176;2022-08-04T19:48:38;27.30;1.00
4699;DHT22;33708;49.466;11.176;2022-08-04T19:51:04;27.30;1.00
4699;DHT22;33708;49.466;11.176;2022-08-04T19:53:30;27.10;1.00
4699;DHT22;33708;49.466;11.176;2022-08-04T19:55:56;27.00;1.00
4699;DHT22;33708;49.466;11.176;2022-08-04T19:58:21;26.90;1.00
4699;DHT22;33708;49.466;11.176;2022-08-04T20:00:49;27.00;1.00
4699;DHT22;33708;49.466;11.176;2022-08-04T20:03:15;26.80;1.00
4699;DHT22;33708;49.466;11.176;2022-08-04T20:05:43;26.80;1.00
4699;DHT22;33708;49.466;11.176;2022-08-04T20:08:10;26.70;1.00
4699;DHT22;33708;49.466;11.176;2022-08-04T20:10:36;26.60;1.00
4699;DHT22;33708;49.466;11.176;2022-08-04T20:13:03;26.50;1.00
4699;DHT22;33708;49.466;11.176;2022-08-04T20:15:29;26.50;1.00
4699;DHT22;33708;49.466;11.176;2022-08-04T20:17:55;26.40;1.00
4699;DHT22;33708;49.466;11.176;2022-08-04T20:20:21;26.40;1.00
4699;DHT22;33708;49.466;11.176;2022-08-04T20:22:46;26.30;1.00
4699;DHT22;33708;49.466;11.176;2022-08-04T20:25:12;26.20;1.00
4699;DHT22;33708;49.466;11.176;2022-08-04T20:27:38;26.20;1.00
4699;DHT22;33708;49.466;11.176;2022-08-04T20:30:04;26.10;1.00
4699;DHT22;33708;49.466;11.176;2022-08-04T20:32:30;26.00;1.00
4699;DHT22;33708;49.466;11.176;2022-08-04T20:34:57;26.00;1.00
4699;DHT22;33708;49.466;11.176;2022-08-04T20:37:24;25.90;1.00
4699;DHT22;33708;49.466;11.176;2022-08-04T20:39:54;25.90;1.00